createdAt,value
2022-12-29T00:02:17.501Z,101268.50
2022-12-29T00:04:48.069Z,101280.63
2022-12-29T00:07:19.396Z,101284.00
2022-12-29T00:09:50.067Z,101287.94
2022-12-29T00:12:20.748Z,101285.38
2022-12-29T00:15:09.564Z,101279.63
2022-12-29T00:17:43.005Z,101285.88
2022-12-29T00:20:31.716Z,101285.69
2022-12-29T00:23:23.327Z,101285.69
2022-12-29T00:26:14.246Z,101290.75
2022-12-29T00:29:03.971Z,101284.88
2022-12-29T00:31:52.405Z,101286.00
2022-12-29T00:34:43.034Z,101290.31
2022-12-29T00:37:14.464Z,101292.56
2022-12-29T00:40:24.101Z,101294.38
2022-12-29T00:43:12.593Z,101304.44
2022-12-29T00:45:46.538Z,101306.66
2022-12-29T00:48:17.140Z,101299.75
2022-12-29T00:50:48.592Z,101301.63
2022-12-29T00:53:19.383Z,101312.50
2022-12-29T00:55:52.936Z,101297.06
2022-12-29T00:58:23.766Z,101295.06
2022-12-29T01:00:56.669Z,101292.00
2022-12-29T01:03:27.264Z,101282.94
2022-12-29T01:05:59.091Z,101282.13
2022-12-29T01:08:33.223Z,101283.81
2022-12-29T01:11:07.206Z,101286.00
2022-12-29T01:13:40.194Z,101293.69
2022-12-29T01:16:11.197Z,101293.25
2022-12-29T01:18:41.922Z,101290.94
2022-12-29T01:21:12.943Z,101281.88
2022-12-29T01:23:43.711Z,101275.50
2022-12-29T01:26:19.087Z,101276.88
2022-12-29T01:28:49.997Z,101276.88
2022-12-29T01:31:29.254Z,101273.19
2022-12-29T01:34:02.780Z,101272.19
2022-12-29T01:36:33.553Z,101274.97
2022-12-29T01:39:04.979Z,101273.50
2022-12-29T01:41:36.021Z,101268.56
2022-12-29T01:44:45.241Z,101265.44
2022-12-29T01:47:29.067Z,101271.81
2022-12-29T01:50:05.081Z,101274.88
2022-12-29T01:52:41.099Z,101264.50
2022-12-29T01:55:12.811Z,101254.13
2022-12-29T01:57:47.514Z,101250.75
2022-12-29T02:00:23.135Z,101261.19
2022-12-29T02:02:55.305Z,101263.06
2022-12-29T02:05:50.477Z,101248.09
2022-12-29T02:08:23.651Z,101247.13
2022-12-29T02:10:54.259Z,101233.41
2022-12-29T02:13:28.154Z,101227.06
2022-12-29T02:16:10.511Z,101221.84
2022-12-29T02:18:51.310Z,101225.72
2022-12-29T02:21:33.643Z,101227.41
2022-12-29T02:24:36.112Z,101220.91
2022-12-29T02:27:24.889Z,101216.00
2022-12-29T02:30:13.652Z,101214.69
2022-12-29T02:33:06.018Z,101211.31
2022-12-29T02:35:47.392Z,101214.69
2022-12-29T02:38:34.439Z,101214.38
2022-12-29T02:41:24.104Z,101219.75
2022-12-29T02:44:15.103Z,101214.56
2022-12-29T02:47:23.727Z,101220.75
2022-12-29T02:50:03.224Z,101225.97
2022-12-29T02:52:38.321Z,101226.13
2022-12-29T02:55:09.092Z,101218.03
2022-12-29T02:57:42.174Z,101219.06
2022-12-29T03:00:18.993Z,101216.72
2022-12-29T03:03:08.830Z,101206.31
2022-12-29T03:05:51.041Z,101197.22
2022-12-29T03:09:19.071Z,101199.41
2022-12-29T03:12:12.366Z,101188.47
2022-12-29T03:15:28.663Z,101184.44
2022-12-29T03:18:07.210Z,101178.03
2022-12-29T03:20:44.486Z,101173.66
2022-12-29T03:23:16.733Z,101175.84
2022-12-29T03:25:51.258Z,101172.66
2022-12-29T03:28:54.180Z,101154.81
2022-12-29T03:31:28.836Z,101146.41
2022-12-29T03:34:02.737Z,101146.75
2022-12-29T03:36:44.079Z,101141.19
2022-12-29T03:39:15.415Z,101139.47
2022-12-29T03:41:47.176Z,101135.28
2022-12-29T03:44:19.920Z,101140.69
2022-12-29T03:46:50.372Z,101134.94
2022-12-29T03:49:21.414Z,101135.66
2022-12-29T03:51:53.004Z,101135.97
2022-12-29T03:54:24.922Z,101132.59
2022-12-29T03:56:56.130Z,101131.28
2022-12-29T03:59:37.326Z,101120.28
2022-12-29T04:02:08.251Z,101118.63
2022-12-29T04:04:40.357Z,101105.00
2022-12-29T04:07:14.965Z,101096.59
2022-12-29T04:09:46.464Z,101104.66
2022-12-29T04:12:23.260Z,101090.19
2022-12-29T04:14:53.919Z,101086.47
2022-12-29T04:17:27.378Z,101086.81
2022-12-29T04:20:18.155Z,101078.75
2022-12-29T04:22:48.909Z,101079.06
2022-12-29T04:25:19.961Z,101064.59
2022-12-29T04:27:51.036Z,101064.94
2022-12-29T04:30:41.473Z,101053.47
2022-12-29T04:33:22.292Z,101047.72
2022-12-29T04:35:55.859Z,101049.75
2022-12-29T04:38:30.538Z,101042.47
2022-12-29T04:41:05.239Z,101047.38
2022-12-29T04:43:37.502Z,101022.25
2022-12-29T04:46:21.108Z,101026.94
2022-12-29T04:49:09.925Z,101012.59
2022-12-29T04:51:55.094Z,101011.56
2022-12-29T04:54:28.423Z,101006.84
2022-12-29T04:57:09.549Z,101004.97
2022-12-29T04:59:44.721Z,101003.28
2022-12-29T05:02:15.639Z,100993.56
2022-12-29T05:04:48.305Z,100988.78
2022-12-29T05:07:19.471Z,100981.66
2022-12-29T05:09:51.816Z,100978.84
2022-12-29T05:12:22.488Z,100968.50
2022-12-29T05:15:04.732Z,100969.97
2022-12-29T05:17:38.191Z,100966.84
2022-12-29T05:20:11.378Z,100974.72
2022-12-29T05:22:42.830Z,100973.25
2022-12-29T08:35:55.250Z,100921.31
2022-12-29T08:38:26.767Z,100916.78
2022-12-29T08:41:01.381Z,100924.88
2022-12-29T08:43:31.826Z,100928.59
2022-12-29T08:46:03.113Z,100935.66
2022-12-29T08:48:33.954Z,100935.22
2022-12-29T08:51:05.578Z,100937.41
2022-12-29T08:53:36.468Z,100942.44
2022-12-29T08:56:07.798Z,100950.91
2022-12-29T08:58:48.104Z,100940.47
2022-12-29T09:01:19.976Z,100951.28
2022-12-29T09:06:41.264Z,100961.97
2022-12-29T09:09:12.379Z,100961.81
2022-12-29T09:11:43.745Z,100953.34
2022-12-29T09:14:16.214Z,100953.06
2022-12-29T09:17:05.511Z,100959.44
2022-12-29T09:19:36.561Z,100965.66
2022-12-29T09:22:07.099Z,100965.31
2022-12-29T09:24:38.264Z,100967.81
2022-12-29T09:27:08.918Z,100971.16
2022-12-29T09:29:39.423Z,100974.88
2022-12-29T09:32:13.861Z,100976.03
2022-12-29T09:34:47.858Z,100989.53
2022-12-29T09:37:18.581Z,100992.38
2022-12-29T09:39:54.549Z,100997.78
2022-12-29T09:42:49.020Z,101010.25
2022-12-29T09:45:22.912Z,101015.88
2022-12-29T09:47:55.824Z,101015.41
2022-12-29T09:50:33.142Z,101018.94
2022-12-29T09:53:08.328Z,101028.72
2022-12-29T09:55:54.476Z,101026.06
2022-12-29T09:58:39.195Z,101028.22
2022-12-29T10:01:41.230Z,101033.97
2022-12-29T10:04:12.243Z,101036.00
2022-12-29T10:07:27.959Z,101037.22
2022-12-29T10:10:05.124Z,101030.50
2022-12-29T10:13:00.856Z,101033.00
2022-12-29T10:16:11.217Z,101038.75
2022-12-29T10:18:56.502Z,101038.44
2022-12-29T10:21:38.768Z,101044.84
2022-12-29T10:24:14.972Z,101039.84
2022-12-29T10:26:46.354Z,101046.41
2022-12-29T10:29:26.974Z,101048.94
2022-12-29T10:32:09.196Z,101046.25
2022-12-29T10:34:43.313Z,101052.66
2022-12-29T10:37:20.096Z,101043.72
2022-12-29T10:39:56.557Z,101047.09
2022-12-29T10:42:38.834Z,101055.34
2022-12-29T10:45:18.156Z,101070.50
2022-12-29T10:48:15.173Z,101075.91
2022-12-29T10:50:45.449Z,101070.88
2022-12-29T10:53:23.199Z,101082.31
2022-12-29T10:55:54.132Z,101080.13
2022-12-29T10:58:25.102Z,101088.06
2022-12-29T11:00:59.285Z,101094.44
2022-12-29T11:04:12.812Z,101096.59
2022-12-29T11:06:45.241Z,101090.44
2022-12-29T11:09:36.622Z,101095.63
2022-12-29T11:12:21.330Z,101098.81
2022-12-29T11:15:12.196Z,101104.88
2022-12-29T11:17:50.197Z,101100.84
2022-12-29T11:20:35.925Z,101112.97
2022-12-29T11:23:08.814Z,101113.31
2022-12-29T11:25:39.657Z,101117.03
2022-12-29T11:28:19.418Z,101123.75
2022-12-29T11:31:02.456Z,101135.22
2022-12-29T11:33:34.773Z,101138.59
2022-12-29T11:36:25.968Z,101141.94
2022-12-29T11:38:57.577Z,101140.63
2022-12-29T11:41:31.124Z,101136.41
2022-12-29T11:44:04.410Z,101140.97
2022-12-29T11:46:37.452Z,101146.34
2022-12-29T11:49:15.817Z,101152.56
2022-12-29T11:51:48.181Z,101147.38
2022-12-29T11:54:39.432Z,101153.06
2022-12-29T11:57:15.918Z,101140.28
2022-12-29T11:59:53.215Z,101153.41
2022-12-29T12:02:31.151Z,101152.78
2022-12-29T12:05:12.813Z,101154.09
2022-12-29T12:07:57.375Z,101147.69
2022-12-29T12:10:40.721Z,101158.28
2022-12-29T12:13:28.885Z,101166.91
2022-12-29T12:16:08.934Z,101176.31
2022-12-29T12:19:16.780Z,101173.28
2022-12-29T12:21:50.868Z,101178.69
2022-12-29T12:24:30.143Z,101181.88
2022-12-29T12:27:21.342Z,101185.91
2022-12-29T12:30:12.522Z,101193.19
2022-12-29T12:32:57.977Z,101185.09
2022-12-29T12:35:34.644Z,101181.19
2022-12-29T12:38:29.597Z,101190.81
2022-12-29T12:41:03.364Z,101189.63
2022-12-29T12:44:08.816Z,101199.56
2022-12-29T12:47:11.474Z,101205.31
2022-12-29T12:50:14.010Z,101201.25
2022-12-29T12:53:26.385Z,101201.59
2022-12-29T12:56:21.184Z,101200.22
2022-12-29T12:59:12.814Z,101204.59
2022-12-29T13:02:11.089Z,101203.59
2022-12-29T13:04:53.418Z,101205.44
2022-12-29T13:07:44.475Z,101200.03
2022-12-29T13:10:31.554Z,101206.28
2022-12-29T13:13:41.482Z,101205.44
2022-12-29T13:16:19.328Z,101201.94
2022-12-29T13:19:02.794Z,101198.38
2022-12-29T13:22:07.928Z,101201.94
2022-12-29T13:25:10.758Z,101200.91
2022-12-29T13:27:53.999Z,101202.75
2022-12-29T13:30:59.798Z,101206.66
2022-12-29T13:33:39.041Z,101204.63
2022-12-29T13:36:15.306Z,101195.69
2022-12-29T13:38:54.573Z,101193.19
2022-12-29T13:41:47.667Z,101199.56
2022-12-29T13:44:36.117Z,101199.22
2022-12-29T13:47:31.716Z,101189.94
2022-12-29T13:50:08.663Z,101188.13
2022-12-29T13:52:51.748Z,101181.53
2022-12-29T13:55:43.944Z,101185.44
2022-12-29T13:58:25.103Z,101187.47
2022-12-29T14:00:59.462Z,101192.00
2022-12-29T14:03:35.801Z,101184.75
2022-12-29T14:06:18.140Z,101190.16
2022-12-29T14:08:50.107Z,101184.25
2022-12-29T14:11:26.329Z,101184.44
2022-12-29T14:13:56.601Z,101183.44
2022-12-29T14:16:35.394Z,101183.44
2022-12-29T14:19:15.871Z,101186.94
2022-12-29T14:21:59.747Z,101183.44
2022-12-29T14:24:39.591Z,101187.47
2022-12-29T14:27:16.727Z,101185.44
2022-12-29T14:29:51.868Z,101180.41
2022-12-29T14:32:28.808Z,101185.78
2022-12-29T14:35:00.960Z,101181.22
2022-12-29T14:37:32.451Z,101185.78
2022-12-29T14:40:29.912Z,101197.06
2022-12-29T14:43:00.500Z,101191.19
2022-12-29T14:45:34.780Z,101186.28
2022-12-29T14:48:24.782Z,101182.09
2022-12-29T14:50:55.722Z,101184.09
2022-12-29T14:53:46.107Z,101178.72
2022-12-29T14:56:19.568Z,101177.38
2022-12-29T14:59:00.064Z,101171.31
2022-12-29T15:01:47.987Z,101175.34
2022-12-29T15:04:22.873Z,101168.63
2022-12-29T15:06:54.438Z,101169.28
2022-12-29T15:09:40.564Z,101158.53
2022-12-29T15:12:43.718Z,101157.84
2022-12-29T15:15:31.815Z,101157.84
2022-12-29T15:18:24.867Z,101153.16
2022-12-29T15:21:07.920Z,101158.69
2022-12-29T15:23:40.419Z,101152.16
2022-12-29T15:26:14.688Z,101141.38
2022-12-29T15:28:48.663Z,101147.78
2022-12-29T15:31:30.511Z,101151.47
2022-12-29T15:34:15.641Z,101145.06
2022-12-29T15:36:46.317Z,101154.31
2022-12-29T15:39:33.516Z,101150.81
2022-12-29T15:42:24.750Z,101147.91
2022-12-29T15:45:10.259Z,101162.88
2022-12-29T15:47:43.301Z,101169.28
2022-12-29T15:50:26.686Z,101163.06
2022-12-29T15:52:57.908Z,101159.72
2022-12-29T15:55:37.346Z,101163.91
2022-12-29T15:58:24.232Z,101155.50
2022-12-29T16:01:03.513Z,101150.09
2022-12-29T16:03:41.636Z,101152.97
2022-12-29T16:06:36.773Z,101169.97
2022-12-29T16:09:16.683Z,101175.34
2022-12-29T16:11:54.964Z,101167.47
2022-12-29T16:14:52.755Z,101157.50
2022-12-29T16:17:28.790Z,101147.06
2022-12-29T16:20:26.943Z,101145.06
2022-12-29T16:23:01.337Z,101158.84
2022-12-29T16:25:36.486Z,101159.03
2022-12-29T16:28:20.044Z,101150.44
2022-12-29T16:31:00.653Z,101146.06
2022-12-29T16:33:49.450Z,101130.94
2022-12-29T16:36:43.853Z,101117.66
2022-12-29T16:39:20.142Z,101122.19
2022-12-29T16:41:52.028Z,101138.31
2022-12-29T16:44:31.781Z,101139.66
2022-12-29T16:47:09.232Z,101138.00
2022-12-29T16:49:42.076Z,101123.84
2022-12-29T16:52:20.052Z,101128.22
2022-12-29T16:54:57.819Z,101128.56
2022-12-29T16:57:31.053Z,101131.72
2022-12-29T17:00:03.774Z,101134.22
2022-12-29T17:02:35.516Z,101131.88
2022-12-29T17:05:06.369Z,101127.50
2022-12-29T17:07:36.864Z,101115.75
2022-12-29T17:10:07.786Z,101115.09
2022-12-29T17:12:38.678Z,101103.66
2022-12-29T17:15:28.057Z,101105.00
2022-12-29T17:17:58.581Z,101102.78
2022-12-29T17:20:33.098Z,101097.75
2022-12-29T17:23:03.318Z,101096.25
2022-12-29T17:25:39.864Z,101097.56
2022-12-29T17:28:28.188Z,101087.16
2022-12-29T17:31:03.488Z,101091.84
2022-12-29T17:33:38.176Z,101092.84
2022-12-29T17:36:08.808Z,101087.81
2022-12-29T17:38:39.293Z,101078.22
2022-12-29T17:41:15.796Z,101080.75
2022-12-29T17:43:46.828Z,101068.97
2022-12-29T17:46:17.376Z,101068.28
2022-12-29T17:48:53.355Z,101082.56
2022-12-29T17:51:24.856Z,101078.03
2022-12-29T17:53:55.705Z,101080.19
2022-12-29T17:56:26.470Z,101071.63
2022-12-29T17:59:00.676Z,101072.31
2022-12-29T18:01:36.209Z,101056.34
2022-12-29T18:04:10.526Z,101049.78
2022-12-29T18:06:41.385Z,101051.81
2022-12-29T18:09:12.154Z,101066.41
2022-12-29T18:11:44.642Z,101062.22
2022-12-29T18:14:16.771Z,101069.56
2022-12-29T18:16:52.863Z,101074.09
2022-12-29T18:19:23.348Z,101064.03
2022-12-29T18:21:54.070Z,101061.50
2022-12-29T18:24:24.695Z,101054.44
2022-12-29T18:26:55.545Z,101056.13
2022-12-29T18:29:28.701Z,101049.06
2022-12-29T18:31:59.269Z,101049.06
2022-12-29T18:34:29.538Z,101041.47
2022-12-29T18:37:02.538Z,101038.97
2022-12-29T18:39:32.905Z,101031.91
2022-12-29T18:42:03.268Z,101031.38
2022-12-29T18:44:34.228Z,101026.19
2022-12-29T18:47:08.506Z,101026.88
2022-12-29T18:49:41.368Z,101022.31
2022-12-29T18:52:14.827Z,101017.13
2022-12-29T18:54:45.378Z,101027.88
2022-12-29T18:57:16.507Z,101014.59
2022-12-29T18:59:46.999Z,101014.75
2022-12-29T19:02:25.818Z,101004.00
2022-12-29T19:05:03.367Z,101001.31
2022-12-29T19:07:37.319Z,100994.59
2022-12-29T19:10:08.201Z,101000.97
2022-12-29T19:12:38.830Z,100999.28
2022-12-29T19:15:15.683Z,101000.47
2022-12-29T19:17:46.331Z,100999.63
2022-12-29T19:20:36.754Z,100995.94
2022-12-29T19:23:10.241Z,101006.19
2022-12-29T19:25:41.479Z,100999.81
2022-12-29T19:28:26.605Z,101008.19
2022-12-29T19:31:00.881Z,101000.28
2022-12-29T19:33:31.254Z,101005.50
2022-12-29T19:36:03.098Z,101006.66
2022-12-29T19:38:33.443Z,101007.66
2022-12-29T19:41:08.721Z,101012.03
2022-12-29T19:43:39.008Z,100991.88
2022-12-29T19:46:11.201Z,100991.88
2022-12-29T19:48:42.119Z,100990.19
2022-12-29T19:51:16.417Z,100995.56
2022-12-29T19:53:47.884Z,100987.34
2022-12-29T19:56:19.502Z,100994.72
2022-12-29T19:58:51.597Z,101004.63
2022-12-29T20:01:25.174Z,100999.56
2022-12-29T20:03:56.052Z,101008.50
2022-12-29T20:06:26.501Z,101014.53
2022-12-29T20:08:57.135Z,101015.38
2022-12-29T20:11:27.757Z,101015.38
2022-12-29T20:13:58.390Z,101014.53
2022-12-29T20:16:30.591Z,101021.75
2022-12-29T20:19:05.422Z,101024.44
2022-12-29T20:21:36.066Z,101019.91
2022-12-29T20:24:06.568Z,101026.44
2022-12-29T20:26:37.380Z,101031.81
2022-12-29T20:29:08.294Z,101036.19
2022-12-29T20:31:42.421Z,101042.56
2022-12-29T20:34:17.650Z,101040.03
2022-12-29T20:36:49.880Z,101062.34
2022-12-29T20:39:24.565Z,101069.59
2022-12-29T20:41:55.113Z,101057.63
2022-12-29T20:44:34.860Z,101055.63
2022-12-29T20:47:09.676Z,101049.44
2022-12-29T20:49:40.315Z,101059.31
2022-12-29T20:52:11.776Z,101059.31
2022-12-29T20:54:42.627Z,101063.00
2022-12-29T20:57:14.938Z,101060.50
2022-12-29T20:59:47.623Z,101061.31
2022-12-29T21:02:23.487Z,101059.63
2022-12-29T21:07:45.599Z,101064.19
2022-12-29T21:10:16.097Z,101062.31
2022-12-29T21:12:49.077Z,101056.25
2022-12-29T21:15:19.483Z,101060.81
2022-12-29T21:17:50.191Z,101053.75
2022-12-29T21:20:30.915Z,101052.06
2022-12-29T21:23:02.629Z,101050.22
2022-12-29T21:25:42.198Z,101048.38
2022-12-29T21:28:15.682Z,101048.53
2022-12-29T21:30:47.151Z,101044.47
2022-12-29T21:33:21.773Z,101044.47
2022-12-29T21:35:52.328Z,101056.06
2022-12-29T21:38:22.644Z,101058.88
2022-12-29T21:40:52.934Z,101062.56
2022-12-29T21:43:24.325Z,101073.31
2022-12-29T21:45:55.057Z,101079.69
2022-12-29T21:48:25.864Z,101079.00
2022-12-29T21:51:18.963Z,101080.69
2022-12-29T21:53:50.363Z,101087.22
2022-12-29T21:56:22.372Z,101088.91
2022-12-29T21:59:13.719Z,101090.59
2022-12-29T22:02:02.208Z,101083.53
2022-12-29T22:04:51.151Z,101086.38
2022-12-29T22:07:40.059Z,101097.97
2022-12-29T22:10:28.724Z,101081.00
2022-12-29T22:13:06.629Z,101081.00
2022-12-29T22:15:46.985Z,101092.91
2022-12-29T22:18:17.221Z,101097.09
2022-12-29T22:20:47.998Z,101093.75
2022-12-29T22:23:18.427Z,101093.75
2022-12-29T22:25:50.913Z,101102.78
2022-12-29T22:28:21.676Z,101105.66
2022-12-29T22:30:55.991Z,101097.75
2022-12-29T22:33:26.517Z,101108.34
2022-12-29T22:35:57.141Z,101106.47
2022-12-29T22:38:28.170Z,101111.84
2022-12-29T22:41:01.638Z,101117.22
2022-12-29T22:43:34.628Z,101119.91
2022-12-29T22:46:08.592Z,101117.38
2022-12-29T22:48:39.643Z,101122.59
2022-12-29T22:51:12.564Z,101117.53
2022-12-29T22:53:46.465Z,101132.66
2022-12-29T22:56:16.828Z,101140.38
2022-12-29T22:58:48.474Z,101132.81
2022-12-29T23:01:25.423Z,101132.81
2022-12-29T23:04:11.123Z,101136.31
2022-12-29T23:06:47.567Z,101137.31
2022-12-29T23:09:20.592Z,101139.00
2022-12-29T23:11:52.442Z,101135.31
2022-12-29T23:14:23.288Z,101141.69
2022-12-29T23:16:55.023Z,101141.38
2022-12-29T23:19:25.352Z,101137.00
2022-12-29T23:21:56.079Z,101140.56
2022-12-29T23:24:27.297Z,101140.69
2022-12-29T23:26:58.439Z,101146.06
2022-12-29T23:29:28.980Z,101151.97
2022-12-29T23:31:59.283Z,101159.19
2022-12-29T23:34:39.267Z,101169.22
2022-12-29T23:37:09.570Z,101168.91
2022-12-29T23:39:40.755Z,101169.78
2022-12-29T23:42:12.682Z,101171.47
2022-12-29T23:44:43.059Z,101173.97
2022-12-29T23:47:13.893Z,101182.72
2022-12-29T23:49:44.803Z,101182.41
2022-12-29T23:52:15.086Z,101182.41
2022-12-29T23:54:45.612Z,101194.56
2022-12-29T23:57:16.607Z,101188.88
2022-12-29T23:59:55.268Z,101189.25
